createdAt,value
2023-05-21T02:25:39.920Z,52.70
2023-05-21T02:28:09.430Z,53.20
2023-05-21T02:30:39.339Z,51.50
2023-05-21T02:33:10.650Z,52.30
2023-05-21T02:35:40.201Z,52.30
2023-05-21T02:38:10.906Z,50.90
2023-05-21T02:40:40.337Z,51.40
2023-05-21T02:43:09.770Z,52.00
2023-05-21T02:45:39.784Z,52.50
2023-05-21T02:48:10.396Z,52.10
2023-05-21T02:50:39.922Z,52.30
2023-05-21T02:53:09.534Z,52.80
2023-05-21T02:55:39.262Z,52.10
2023-05-21T02:58:08.801Z,50.60
2023-05-21T03:00:38.467Z,49.90
2023-05-21T03:03:08.165Z,49.90
2023-05-21T03:05:39.073Z,49.30
2023-05-21T03:08:08.565Z,49.00
2023-05-21T03:10:37.975Z,48.50
2023-05-21T03:13:09.853Z,49.50
2023-05-21T03:15:40.577Z,48.50
2023-05-21T03:18:10.030Z,48.30
2023-05-21T03:20:46.192Z,47.30
2023-05-21T03:23:16.864Z,47.80
2023-05-21T03:25:47.748Z,48.10
2023-05-21T03:28:17.277Z,47.60
2023-05-21T03:30:51.628Z,47.60
2023-05-21T03:33:21.708Z,48.10
2023-05-21T03:35:51.179Z,47.30
2023-05-21T03:38:20.608Z,48.00
2023-05-21T03:40:50.138Z,47.90
2023-05-21T03:43:19.535Z,47.60
2023-05-21T03:45:49.072Z,48.30
2023-05-21T03:48:19.818Z,48.30
2023-05-21T03:50:49.360Z,48.20
2023-05-21T03:53:18.878Z,48.80
2023-05-21T03:55:48.965Z,48.90
2023-05-21T03:58:18.359Z,47.60
2023-05-21T04:00:47.780Z,48.30
2023-05-21T04:03:17.838Z,48.40
2023-05-21T04:05:47.415Z,47.90
2023-05-21T04:08:17.787Z,47.80
2023-05-21T04:10:48.335Z,47.50
2023-05-21T04:13:18.017Z,48.00
2023-05-21T04:15:48.258Z,48.20
2023-05-21T04:18:22.169Z,47.80
2023-05-21T04:20:51.783Z,48.40
2023-05-21T04:23:22.240Z,47.90
2023-05-21T04:25:52.289Z,47.50
2023-05-21T04:28:21.871Z,47.60
2023-05-21T04:30:51.616Z,47.50
2023-05-21T04:33:22.837Z,47.60
2023-05-21T06:29:30.897Z,50.10
2023-05-21T06:32:00.430Z,50.30
2023-05-21T06:34:30.599Z,50.40
2023-05-21T06:37:00.500Z,50.60
2023-05-21T06:39:30.927Z,50.30
2023-05-21T06:42:00.566Z,50.80
2023-05-21T06:44:29.991Z,50.70
2023-05-21T06:46:59.842Z,50.50
2023-05-21T06:49:29.261Z,51.30
2023-05-21T06:51:59.130Z,51.80
2023-05-21T06:54:28.510Z,52.00
2023-05-21T06:56:57.963Z,51.20
2023-05-21T06:59:27.974Z,51.00
2023-05-21T07:01:57.393Z,51.10
2023-05-21T07:04:26.885Z,51.40
2023-05-21T07:06:56.320Z,51.30
2023-05-21T07:09:26.059Z,50.80
2023-05-21T07:11:55.597Z,50.90
2023-05-21T07:14:28.819Z,50.90
2023-05-21T07:16:58.273Z,51.00
2023-05-21T07:19:28.922Z,51.60
2023-05-21T07:21:58.473Z,52.20
2023-05-21T07:24:30.316Z,52.20
2023-05-21T07:29:46.217Z,52.60
2023-05-21T07:32:15.622Z,52.80
2023-05-21T07:34:45.063Z,53.40
2023-05-21T07:37:15.904Z,53.70
2023-05-21T07:39:45.709Z,54.40
2023-05-21T07:42:15.153Z,54.70
2023-05-21T07:44:45.746Z,55.40
2023-05-21T07:47:16.162Z,55.70
2023-05-21T07:49:46.151Z,56.00
2023-05-21T07:52:16.595Z,56.10
2023-05-21T07:54:46.164Z,56.50
2023-05-21T07:57:16.068Z,56.70
2023-05-21T07:59:45.875Z,56.90
2023-05-21T08:02:15.585Z,56.80
2023-05-21T08:04:46.128Z,56.50
2023-05-21T08:07:18.581Z,56.40
2023-05-21T08:09:50.291Z,55.70
2023-05-21T08:12:22.693Z,54.80
2023-05-21T08:14:52.455Z,55.60
2023-05-21T08:17:22.316Z,56.20
2023-05-21T08:19:51.947Z,56.40
2023-05-21T08:22:21.575Z,56.30
2023-05-21T08:24:52.065Z,56.20
2023-05-21T08:27:22.145Z,56.30
2023-05-21T08:29:51.763Z,57.00
2023-05-21T08:32:21.451Z,57.20
2023-05-21T08:34:51.009Z,57.50
2023-05-21T08:37:20.882Z,58.00
2023-05-21T08:39:50.677Z,58.80
2023-05-21T08:42:37.579Z,58.70
2023-05-21T08:45:08.636Z,58.50
2023-05-21T08:47:38.867Z,59.20
2023-05-21T08:50:11.430Z,59.10
2023-05-21T08:52:41.041Z,59.00
2023-05-21T08:55:11.659Z,59.30
2023-05-21T08:57:45.307Z,59.60
2023-05-21T09:00:15.810Z,59.60
2023-05-21T09:02:47.986Z,60.10
2023-05-21T09:05:17.766Z,59.80
2023-05-21T09:07:53.609Z,59.80
2023-05-21T09:10:25.929Z,60.50
2023-05-21T09:12:55.592Z,60.40
2023-05-21T09:15:25.275Z,60.80
2023-05-21T09:17:55.413Z,61.00
2023-05-21T09:20:28.561Z,61.10
2023-05-21T09:22:58.078Z,61.00
2023-05-21T09:25:30.960Z,61.20
2023-05-21T09:28:01.138Z,61.50
2023-05-21T09:30:32.481Z,61.60
2023-05-21T09:33:05.034Z,61.90
2023-05-21T09:35:36.282Z,61.90
2023-05-21T09:38:11.675Z,61.80
2023-05-21T09:40:45.886Z,61.60
2023-05-21T09:43:18.362Z,61.60
2023-05-21T09:45:58.989Z,62.10
2023-05-21T09:48:44.631Z,62.00
2023-05-21T10:36:40.719Z,64.50
2023-05-21T10:39:11.648Z,65.00
2023-05-21T10:41:47.884Z,65.10
2023-05-21T10:44:38.876Z,65.20
2023-05-21T10:47:11.530Z,64.90
2023-05-21T10:50:19.846Z,65.70
2023-05-21T10:52:49.795Z,65.10
2023-05-21T10:55:19.598Z,65.60
2023-05-21T10:57:57.615Z,65.60
2023-05-21T11:00:27.795Z,65.90
2023-05-21T11:02:57.955Z,65.60
2023-05-21T11:05:45.356Z,66.20
2023-05-21T11:08:24.237Z,65.90
2023-05-21T11:10:55.058Z,66.30
2023-05-21T11:13:25.215Z,66.60
2023-05-21T11:16:00.974Z,66.20
2023-05-21T11:18:33.463Z,66.50
2023-05-21T11:21:10.943Z,66.50
2023-05-21T11:23:55.897Z,67.20
2023-05-21T11:26:26.385Z,67.80
2023-05-21T11:29:11.057Z,66.90
2023-05-21T11:31:41.153Z,66.70
2023-05-21T11:34:31.154Z,67.20
